AIRPORT_AIRPORT_METAR
METAR FOR ELLX
ADDS - METARS form results

(0756 UTC 08 May 2021)
Data provider http://aviationweather.gov/metar/data/
 
METAR text: ELLX 080750Z 16007KT 120V200 CAVOK 08/01 Q1017 NOSIG
Conditions at: ELLX (LUXEMBOURG (AUT), LU) observed 0750 UTC 08 May 2021
Temperature: 8.0°C (46°F)
Dewpoint: 1.0°C (34°F) [RH = 61%]
Pressure (altimeter): 30.03 inches Hg (1017.0 mb)
Winds: from the SSE (160 degrees) at 8 MPH (7 knots; 3.6 m/s)
Visibility: 6 or more miles (10+ km)
Ceiling: ceiling and visibility are OK
Clouds: unknown
Weather: no significant weather observed at this time

METAR text: ELLX 080720Z 16007KT 110V200 CAVOK 08/01 Q1017
Conditions at: ELLX (LUXEMBOURG (AUT), LU) observed 0720 UTC 08 May 2021
Temperature: 8.0°C (46°F)
Dewpoint: 1.0°C (34°F) [RH = 61%]
Pressure (altimeter): 30.03 inches Hg (1017.0 mb)
Winds: from the SSE (160 degrees) at 8 MPH (7 knots; 3.6 m/s)
Visibility: 6 or more miles (10+ km)
Ceiling: ceiling and visibility are OK
Clouds: unknown
Weather: no significant weather observed at this time

Forecast for: ELLX (LUXEMBOURG (AUT), LU)
Text: TAF ELLX 080500Z 0806/0912 17010KT CAVOK
Forecast period: 0600 UTC 08 May 2021 to 1200 UTC 09 May 2021
Forecast type: FROM: standard forecast or significant change
Winds: from the S (170 degrees) at 12 MPH (10 knots; 5.1 m/s)
Visibility: 6 or more miles (10+ km)
Ceiling: unknown
Clouds: missing
Weather: NSW  (no significant weather)
Text: TEMPO 0811/0818 18010G20KT
Forecast period: 1100 to 1800 UTC 08 May 2021
Forecast type: TEMPORARY: The following changes expected for less than half the time period
Winds: from the S (180 degrees) at 12 MPH (10 knots; 5.1 m/s)
gusting to 23 MPH (20 knots; 10.3 m/s)
Visibility: missing
Ceiling: unknown
Clouds: missing
Weather: no significant weather forecast for this period

 AIRPORT_AIRPORT_MAP

 AIRPORT_RUNWAY_INFO
AIRPORT_RUNWAY 06 AIRPORT_RUNWAY_LENGTH 13123 ft AIRPORT_RUNWAY_WIDTH 197 ft
AIRPORT_RUNWAY_ELEVATION 1158 ft AIRPORT_RUNWAY_THRESHOLD 0 ft AIRPORT_RUNWAY_HEADING 60
AIRPORT_RUNWAY 24 AIRPORT_RUNWAY_LENGTH 13123 ft AIRPORT_RUNWAY_WIDTH 197 ft
AIRPORT_RUNWAY_ELEVATION 1214 ft AIRPORT_RUNWAY_THRESHOLD 0 ft AIRPORT_RUNWAY_HEADING 240

 AIRPORT_AIRPORT_FREQUENCIES
AIRPORT_AIRPORT_NAVAIDS_TYPE APP AIRPORT_AIRPORT_NAVAIDS_NAME APP AIRPORT_AIRPORT_NAVAIDS_FREQ 118.9 MHZ
AIRPORT_AIRPORT_NAVAIDS_TYPE ATIS AIRPORT_AIRPORT_NAVAIDS_NAME ATIS AIRPORT_AIRPORT_NAVAIDS_FREQ 135.55 MHZ
AIRPORT_AIRPORT_NAVAIDS_TYPE TWR AIRPORT_AIRPORT_NAVAIDS_NAME TWR AIRPORT_AIRPORT_NAVAIDS_FREQ 118.1 MHZ

 AIRPORT_AIRPORT_NAVAIDS
AIRPORT_AIRPORT_NAVAIDS_TYPE NDB AIRPORT_AIRPORT_NAVAIDS_NAME Luxembourg AIRPORT_AIRPORT_NAVAIDS_FREQ 369 KHZ
AIRPORT_AIRPORT_NAVAIDS_TYPE VOR-DME AIRPORT_AIRPORT_NAVAIDS_NAME Luxembourg AIRPORT_AIRPORT_NAVAIDS_FREQ 112250 KHZ
AIRPORT_AIRPORT_NAVAIDS_TYPE NDB AIRPORT_AIRPORT_NAVAIDS_NAME Luxembourg AIRPORT_AIRPORT_NAVAIDS_FREQ 346 KHZ



Copyright © 2005-2020 - Virtuel Air Alsace - Tous droits réservés